Time;durP1;ratioP1;P1;durP2;ratioP2;P2;SDS_P1;SDS_P2;PMS_P1;PMS_P2;Temp;Humidity;BMP_temperature;BMP_pressure;BME280_temperature;BME280_humidity;BME280_pressure;Samples;Min_cycle;Max_cycle;Signal;HPM_P1;HPM_P2
2022/01/05 00:01:16;;;;;;;20.75;14.68;;;;;;;6.25;100.00;97371.22;4960183;28;22883;-63
2022/01/05 00:03:41;;;;;;;21.17;15.27;;;;;;;6.35;100.00;97402.13;5031695;28;20140;-63
2022/01/05 00:06:07;;;;;;;22.08;15.90;;;;;;;6.18;100.00;97370.19;5050929;28;20083;-65
2022/01/05 00:08:32;;;;;;;22.02;16.05;;;;;;;6.35;100.00;97384.03;5034556;28;20099;-62
2022/01/05 00:10:58;;;;;;;19.25;14.88;;;;;;;6.42;100.00;97376.53;5034481;28;20694;-63
2022/01/05 00:13:23;;;;;;;19.48;14.55;;;;;;;6.45;100.00;97373.66;5041981;28;20496;-63
2022/01/05 00:15:48;;;;;;;17.73;13.98;;;;;;;6.42;100.00;97333.44;5010615;28;21336;-63
2022/01/05 00:18:14;;;;;;;20.65;14.98;;;;;;;6.40;100.00;97350.84;4988694;28;20038;-61
2022/01/05 00:20:39;;;;;;;21.73;15.40;;;;;;;6.37;100.00;97350.34;5017862;28;20029;-64
2022/01/05 00:23:05;;;;;;;23.27;16.10;;;;;;;6.38;100.00;97346.81;5011791;28;20042;-63
2022/01/05 00:25:30;;;;;;;19.92;15.45;;;;;;;6.31;100.00;97333.66;5044519;28;20790;-63
2022/01/05 00:27:55;;;;;;;18.23;13.65;;;;;;;6.40;100.00;97330.19;5022128;28;20067;-65
2022/01/05 00:30:21;;;;;;;17.55;13.98;;;;;;;6.39;100.00;97333.75;5000545;28;20080;-61
2022/01/05 00:32:46;;;;;;;17.42;14.30;;;;;;;6.33;100.00;97330.00;5004489;28;20029;-61
2022/01/05 00:35:12;;;;;;;18.30;13.88;;;;;;;6.28;100.00;97319.31;5011273;28;20030;-62
2022/01/05 00:37:38;;;;;;;18.48;14.32;;;;;;;6.29;100.00;97318.31;5012135;28;20464;-62
2022/01/05 00:40:07;;;;;;;16.63;13.15;;;;;;;6.26;100.00;97305.72;5009363;28;20033;-62
2022/01/05 00:42:33;;;;;;;18.10;13.65;;;;;;;6.30;100.00;97309.63;4997396;28;20226;-61
2022/01/05 00:44:58;;;;;;;19.35;14.40;;;;;;;6.16;100.00;97315.31;5013718;28;20037;-62
2022/01/05 00:47:24;;;;;;;18.77;13.60;;;;;;;6.29;100.00;97331.22;5004786;28;20125;-61
2022/01/05 00:49:50;;;;;;;18.42;14.13;;;;;;;6.24;100.00;97327.47;4970169;28;22105;-61
2022/01/05 00:52:15;;;;;;;17.58;13.45;;;;;;;6.30;100.00;97332.06;5039787;28;20034;-62
2022/01/05 00:54:41;;;;;;;16.50;13.40;;;;;;;6.15;100.00;97329.16;5014314;28;20044;-62
2022/01/05 00:57:06;;;;;;;20.80;14.27;;;;;;;6.20;100.00;97331.31;5013286;28;20071;-61
2022/01/05 00:59:32;;;;;;;18.27;13.40;;;;;;;6.24;100.00;97317.97;5013018;28;20144;-62
2022/01/05 01:01:57;;;;;;;16.60;12.60;;;;;;;6.25;100.00;97311.03;5010971;28;20091;-64
2022/01/05 01:04:23;;;;;;;15.20;12.32;;;;;;;6.28;100.00;97323.63;5041136;28;20091;-65
2022/01/05 01:06:48;;;;;;;15.20;12.50;;;;;;;6.22;100.00;97316.50;4937963;28;20515;-62
2022/01/05 01:09:14;;;;;;;16.10;12.65;;;;;;;6.24;100.00;97310.25;5010588;28;20112;-61
2022/01/05 01:11:39;;;;;;;14.70;12.10;;;;;;;6.27;100.00;97309.91;5010935;28;20035;-65
2022/01/05 01:14:05;;;;;;;15.82;12.25;;;;;;;6.38;100.00;97319.22;5026306;28;20036;-62
2022/01/05 01:16:30;;;;;;;15.32;12.15;;;;;;;6.35;100.00;97304.00;5010242;28;20029;-63
2022/01/05 01:18:56;;;;;;;15.68;12.35;;;;;;;6.20;100.00;97272.75;5016000;28;20109;-62
2022/01/05 01:21:22;;;;;;;15.20;12.45;;;;;;;6.40;100.00;97288.06;4953285;28;20112;-65
2022/01/05 01:23:55;;;;;;;14.95;11.95;;;;;;;6.49;100.00;97303.47;4989291;28;20679;-62
2022/01/05 01:26:22;;;;;;;14.50;11.07;;;;;;;6.52;100.00;97300.59;5009625;28;20034;-63
2022/01/05 01:28:47;;;;;;;13.60;10.80;;;;;;;6.50;100.00;97306.88;5008400;28;20083;-63
2022/01/05 01:31:13;;;;;;;14.18;10.98;;;;;;;6.44;100.00;97297.13;5035808;28;20772;-62
2022/01/05 01:33:38;;;;;;;15.75;12.10;;;;;;;6.27;100.00;97260.06;4995528;28;20099;-62
2022/01/05 01:36:04;;;;;;;15.23;11.20;;;;;;;6.47;100.00;97287.31;5012274;28;20990;-62
2022/01/05 01:38:29;;;;;;;12.70;10.35;;;;;;;6.43;100.00;97293.75;4922060;28;20120;-61
2022/01/05 01:40:55;;;;;;;12.68;10.13;;;;;;;6.50;100.00;97289.59;5013103;28;20029;-64
2022/01/05 01:43:20;;;;;;;11.95;9.48;;;;;;;6.47;100.00;97278.78;5040288;28;20033;-64
2022/01/05 01:45:46;;;;;;;10.05;8.00;;;;;;;6.44;100.00;97261.00;5010824;28;20545;-61
2022/01/05 01:48:11;;;;;;;9.95;7.88;;;;;;;6.40;100.00;97264.84;5007578;28;20018;-62
2022/01/05 01:50:37;;;;;;;10.98;8.80;;;;;;;6.34;100.00;97240.44;5014414;28;20024;-64
2022/01/05 01:53:02;;;;;;;10.73;8.48;;;;;;;6.16;100.00;97223.22;5000440;28;20464;-62
2022/01/05 01:55:28;;;;;;;10.35;8.20;;;;;;;6.19;100.00;97200.63;5010436;28;20033;-61
2022/01/05 01:57:54;;;;;;;12.20;9.32;;;;;;;6.42;100.00;97248.22;5013545;28;20040;-61
2022/01/05 02:00:20;;;;;;;9.60;7.80;;;;;;;6.37;100.00;97227.25;5012076;28;20088;-60
2022/01/05 02:02:46;;;;;;;9.35;7.78;;;;;;;6.45;100.00;97224.69;5042316;28;20029;-61
2022/01/05 02:05:11;;;;;;;9.93;7.97;;;;;;;6.35;100.00;97213.66;4996602;28;20030;-62
2022/01/05 02:07:37;;;;;;;10.07;7.90;;;;;;;6.44;100.00;97225.63;5044056;28;20069;-62
2022/01/05 02:10:07;;;;;;;9.57;7.90;;;;;;;6.49;100.00;97223.41;5000367;28;20452;-62
2022/01/05 02:12:33;;;;;;;9.48;8.02;;;;;;;6.54;100.00;97228.13;5030167;28;20661;-60
2022/01/05 02:14:58;;;;;;;9.68;8.00;;;;;;;6.54;100.00;97220.38;5007997;28;20030;-63
2022/01/05 02:17:41;;;;;;;10.93;8.35;;;;;;;6.53;100.00;97213.59;5016629;28;20771;-62
2022/01/05 02:20:18;;;;;;;10.13;8.30;;;;;;;6.34;100.00;97202.53;5016379;28;20043;-62
2022/01/05 02:22:44;;;;;;;12.27;8.45;;;;;;;6.09;100.00;97168.00;5009534;28;20026;-63
2022/01/05 02:25:10;;;;;;;10.65;8.88;;;;;;;6.35;100.00;97195.56;4951752;28;20064;-62
2022/01/05 02:27:41;;;;;;;10.45;8.52;;;;;;;6.32;100.00;97183.78;5010487;28;20508;-62
2022/01/05 02:30:09;;;;;;;11.02;8.95;;;;;;;6.13;100.00;97129.78;5028691;28;20052;-63
2022/01/05 02:32:34;;;;;;;11.38;9.20;;;;;;;6.42;100.00;97177.72;5014945;28;20427;-63
2022/01/05 02:35:00;;;;;;;10.07;8.50;;;;;;;6.45;100.00;97170.47;5034026;28;20098;-62
2022/01/05 02:37:26;;;;;;;10.43;8.70;;;;;;;6.33;100.00;97172.53;5008505;28;20609;-63
2022/01/05 02:39:51;;;;;;;10.85;8.75;;;;;;;6.12;100.00;97134.16;4998312;28;20164;-63
2022/01/05 02:42:29;;;;;;;10.40;8.85;;;;;;;6.33;100.00;97163.94;5019817;28;20395;-60
2022/01/05 02:44:56;;;;;;;10.15;8.48;;;;;;;6.42;100.00;97175.13;5012588;28;20139;-62
2022/01/05 02:47:22;;;;;;;9.23;7.80;;;;;;;6.39;100.00;97178.00;5013806;28;20603;-61
2022/01/05 02:49:47;;;;;;;9.88;6.97;;;;;;;6.23;100.00;97148.56;5016189;28;20120;-63
2022/01/05 02:52:14;;;;;;;8.38;7.10;;;;;;;6.41;100.00;97151.09;5019605;28;20045;-62
2022/01/05 02:54:41;;;;;;;7.95;6.60;;;;;;;6.41;100.00;97153.66;5014926;28;20839;-62
2022/01/05 02:57:06;;;;;;;8.57;6.63;;;;;;;6.53;100.00;97144.69;5028852;28;20048;-62
2022/01/05 02:59:32;;;;;;;8.48;6.80;;;;;;;6.35;100.00;97137.03;5021040;28;20034;-62
2022/01/05 03:01:58;;;;;;;8.80;7.10;;;;;;;6.35;100.00;97118.94;5024695;28;20057;-61
2022/01/05 03:04:26;;;;;;;7.68;6.43;;;;;;;6.34;100.00;97126.84;5013733;28;20030;-63
2022/01/05 03:06:52;;;;;;;8.38;7.07;;;;;;;6.37;100.00;97115.38;5030602;28;20053;-61
2022/01/05 03:09:17;;;;;;;8.82;6.95;;;;;;;6.33;100.00;97097.66;5033129;28;20053;-61
2022/01/05 03:11:42;;;;;;;8.43;7.10;;;;;;;6.37;100.00;97093.00;5001268;28;20037;-62
2022/01/05 03:14:08;;;;;;;8.50;7.10;;;;;;;6.43;100.00;97089.78;4980981;28;20147;-62
2022/01/05 03:16:33;;;;;;;8.55;7.07;;;;;;;6.39;100.00;97087.66;5004153;28;20022;-61
2022/01/05 03:18:59;;;;;;;8.23;6.97;;;;;;;6.18;100.00;97060.47;5032610;28;20117;-60
2022/01/05 03:21:24;;;;;;;7.72;6.10;;;;;;;6.31;100.00;97093.59;5019825;28;20025;-61
2022/01/05 03:23:49;;;;;;;7.65;6.30;;;;;;;6.24;100.00;97103.75;5016516;28;20056;-62
2022/01/05 03:26:15;;;;;;;7.75;6.15;;;;;;;6.12;100.00;97087.69;5013734;28;20100;-62
2022/01/05 03:28:40;;;;;;;7.88;6.78;;;;;;;6.21;100.00;97085.16;4958102;28;20792;-62
2022/01/05 03:31:06;;;;;;;7.57;6.30;;;;;;;6.21;100.00;97083.38;5017356;28;20029;-60
2022/01/05 03:33:31;;;;;;;7.68;6.30;;;;;;;6.19;100.00;97077.56;5033350;28;20073;-62
2022/01/05 03:35:58;;;;;;;7.28;6.03;;;;;;;6.26;100.00;97078.59;5026834;28;20029;-63
2022/01/05 03:38:24;;;;;;;8.63;7.15;;;;;;;6.09;100.00;97048.50;5013050;28;20057;-62
2022/01/05 03:40:49;;;;;;;8.75;7.05;;;;;;;6.45;100.00;97092.19;5016481;28;20107;-62
2022/01/05 03:43:15;;;;;;;8.20;6.88;;;;;;;6.24;100.00;97080.50;5012893;28;20144;-61
2022/01/05 03:45:41;;;;;;;9.25;7.35;;;;;;;6.32;100.00;97095.22;5004234;28;20224;-61
2022/01/05 03:48:09;;;;;;;9.05;7.22;;;;;;;6.38;100.00;97104.13;5032569;28;20079;-61
2022/01/05 03:50:35;;;;;;;8.35;6.75;;;;;;;6.37;100.00;97108.47;5005141;28;20032;-61
2022/01/05 03:53:00;;;;;;;8.63;7.53;;;;;;;6.23;100.00;97103.88;5023532;28;20033;-61
2022/01/05 03:55:26;;;;;;;8.95;7.47;;;;;;;6.19;100.00;97089.66;5030725;28;20057;-63
2022/01/05 03:57:51;;;;;;;8.50;6.68;;;;;;;6.17;100.00;97076.94;5013674;28;20151;-60
2022/01/05 04:00:17;;;;;;;8.57;6.15;;;;;;;6.25;100.00;97100.19;4929448;28;21525;-64
2022/01/05 04:02:43;;;;;;;6.90;5.90;;;;;;;6.19;100.00;97103.38;4999430;28;20030;-61
2022/01/05 04:05:09;;;;;;;9.35;6.78;;;;;;;6.19;100.00;97098.22;5030188;28;20408;-62
2022/01/05 04:07:34;;;;;;;8.38;6.68;;;;;;;6.20;100.00;97097.25;5011117;28;20018;-62
2022/01/05 04:10:00;;;;;;;7.47;5.82;;;;;;;6.03;100.00;97056.84;5002155;28;20026;-62
2022/01/05 04:12:25;;;;;;;7.07;5.72;;;;;;;6.31;100.00;97099.56;5030825;28;20036;-63
2022/01/05 04:14:50;;;;;;;7.75;6.43;;;;;;;6.18;100.00;97082.88;5014012;28;20030;-63
2022/01/05 04:17:16;;;;;;;7.85;6.07;;;;;;;6.15;100.00;97074.50;5009957;28;20387;-61
2022/01/05 04:19:41;;;;;;;8.05;6.63;;;;;;;6.23;100.00;97098.72;5018508;28;20683;-62
2022/01/05 04:22:07;;;;;;;7.82;6.50;;;;;;;5.95;100.00;97055.84;5034268;28;20325;-63
2022/01/05 04:24:32;;;;;;;7.82;6.32;;;;;;;6.18;100.00;97093.22;5011225;28;20025;-63
2022/01/05 04:26:58;;;;;;;7.90;5.90;;;;;;;5.82;100.00;97057.97;5019355;28;20041;-64
2022/01/05 04:29:24;;;;;;;7.80;6.50;;;;;;;6.04;100.00;97085.09;5014988;28;20030;-63
2022/01/05 04:31:50;;;;;;;7.82;5.85;;;;;;;6.11;100.00;97087.84;5004534;28;20029;-62
2022/01/05 04:34:15;;;;;;;7.93;5.85;;;;;;;6.18;100.00;97098.38;5016797;28;20472;-63
2022/01/05 04:36:41;;;;;;;8.32;6.30;;;;;;;6.06;100.00;97098.66;5017254;28;20041;-64
2022/01/05 04:39:06;;;;;;;6.85;5.63;;;;;;;6.04;100.00;97092.00;5014068;28;20088;-61
2022/01/05 04:41:32;;;;;;;6.90;5.68;;;;;;;5.78;100.00;97060.06;5015051;28;20461;-62
2022/01/05 04:43:57;;;;;;;7.20;5.60;;;;;;;6.10;100.00;97099.94;5012400;28;20037;-61
2022/01/05 04:46:22;;;;;;;8.93;5.72;;;;;;;6.22;100.00;97102.25;5011182;28;20030;-62
2022/01/05 04:48:48;;;;;;;7.22;5.57;;;;;;;6.19;100.00;97081.91;5004982;28;20524;-64
2022/01/05 04:51:13;;;;;;;6.95;5.30;;;;;;;6.26;100.00;97088.91;5046690;28;20029;-61
2022/01/05 04:53:39;;;;;;;6.65;4.95;;;;;;;6.38;100.00;97097.16;5013056;28;20033;-61
2022/01/05 04:56:04;;;;;;;6.30;5.00;;;;;;;6.37;100.00;97090.41;5013900;28;20249;-63
2022/01/05 04:58:31;;;;;;;6.72;5.35;;;;;;;6.18;100.00;97094.00;5013984;28;20075;-62
2022/01/05 05:00:56;;;;;;;7.53;5.40;;;;;;;6.13;100.00;97091.06;5013558;28;20064;-62
2022/01/05 05:03:21;;;;;;;7.40;5.32;;;;;;;6.10;100.00;97094.00;5011638;28;20025;-65
2022/01/05 05:05:47;;;;;;;7.15;5.47;;;;;;;6.04;100.00;97098.00;4999053;28;20026;-62
2022/01/05 05:08:12;;;;;;;7.00;5.43;;;;;;;5.85;100.00;97069.78;5015531;28;20112;-65
2022/01/05 05:10:37;;;;;;;8.65;6.03;;;;;;;6.02;100.00;97093.94;5014393;28;20037;-60
2022/01/05 05:13:10;;;;;;;8.15;6.05;;;;;;;6.13;100.00;97099.66;5018403;28;20684;-61
2022/01/05 05:15:36;;;;;;;7.20;5.82;;;;;;;6.08;100.00;97094.13;5023291;28;20385;-64
2022/01/05 05:18:02;;;;;;;7.68;5.82;;;;;;;6.11;100.00;97104.13;5013176;28;20029;-61
2022/01/05 05:20:28;;;;;;;7.80;5.88;;;;;;;6.09;100.00;97100.91;4970808;28;21209;-61
2022/01/05 05:22:53;;;;;;;7.15;5.68;;;;;;;6.10;100.00;97091.41;5015277;28;20034;-62
2022/01/05 05:25:19;;;;;;;7.43;5.93;;;;;;;6.12;100.00;97097.22;5013311;28;20052;-60
2022/01/05 05:27:44;;;;;;;6.53;5.43;;;;;;;6.14;100.00;97095.28;5012353;28;20083;-60
2022/01/05 05:30:10;;;;;;;8.48;6.82;;;;;;;6.06;100.00;97092.66;5015866;28;20124;-61
2022/01/05 05:32:35;;;;;;;6.63;5.38;;;;;;;5.99;100.00;97083.91;5015702;28;20072;-62
2022/01/05 05:35:01;;;;;;;7.38;5.40;;;;;;;5.95;100.00;97073.91;5009165;28;20540;-63
2022/01/05 05:37:26;;;;;;;7.88;5.60;;;;;;;6.18;100.00;97082.88;4989772;28;20026;-61
2022/01/05 05:39:52;;;;;;;6.90;5.45;;;;;;;5.85;100.00;97029.31;5013240;28;20041;-62
2022/01/05 05:42:17;;;;;;;7.50;5.95;;;;;;;6.18;100.00;97069.97;5001314;28;20026;-60
2022/01/05 05:44:43;;;;;;;7.53;5.53;;;;;;;5.87;100.00;97009.31;5015900;28;20029;-62
2022/01/05 05:47:09;;;;;;;7.22;5.00;;;;;;;6.20;100.00;97061.13;5016373;28;20095;-62
2022/01/05 05:49:34;;;;;;;6.20;4.63;;;;;;;5.82;100.00;97005.59;5047670;28;20030;-61
2022/01/05 05:52:01;;;;;;;6.40;4.95;;;;;;;6.08;100.00;97044.31;4964369;28;20076;-61
2022/01/05 05:54:27;;;;;;;7.03;5.25;;;;;;;6.14;100.00;97052.22;5031005;28;20026;-61
2022/01/05 05:56:52;;;;;;;8.60;6.13;;;;;;;5.99;100.00;97024.56;5017693;28;20034;-62
2022/01/05 05:59:17;;;;;;;6.88;4.63;;;;;;;5.85;100.00;97006.09;5012758;28;20033;-60
2022/01/05 06:01:43;;;;;;;7.85;5.30;;;;;;;6.00;100.00;97045.06;5016357;28;20488;-61
2022/01/05 06:04:08;;;;;;;7.60;4.82;;;;;;;6.09;100.00;97043.31;5007616;28;20030;-61
2022/01/05 06:06:34;;;;;;;8.27;4.88;;;;;;;6.04;100.00;97043.81;5026158;28;20045;-63
2022/01/05 06:09:00;;;;;;;6.45;4.68;;;;;;;5.72;100.00;96992.81;4930288;28;20030;-61
2022/01/05 06:11:25;;;;;;;8.07;5.13;;;;;;;6.11;100.00;97049.94;4992561;28;20126;-62
2022/01/05 06:13:52;;;;;;;7.10;4.82;;;;;;;6.06;100.00;97044.47;5007517;28;20045;-61
2022/01/05 06:16:18;;;;;;;9.38;4.65;;;;;;;6.07;100.00;97042.69;5024689;28;20029;-60
2022/01/05 06:18:43;;;;;;;4.55;2.88;;;;;;;6.04;100.00;97041.22;5011990;28;20040;-61
2022/01/05 06:21:08;;;;;;;4.80;2.88;;;;;;;6.08;100.00;97027.03;5014098;28;20142;-60
2022/01/05 06:23:34;;;;;;;5.78;3.00;;;;;;;5.95;100.00;96999.09;4996637;28;20022;-62
2022/01/05 06:25:59;;;;;;;4.95;2.85;;;;;;;6.21;100.00;97023.22;4995127;28;20029;-61
2022/01/05 06:28:25;;;;;;;5.80;3.38;;;;;;;6.20;100.00;97029.34;5026005;28;20396;-61
2022/01/05 06:30:50;;;;;;;5.30;3.45;;;;;;;6.20;100.00;97024.19;5027873;28;20022;-62
2022/01/05 06:33:16;;;;;;;5.32;3.03;;;;;;;6.15;100.00;97014.31;5013021;28;20461;-61
2022/01/05 06:35:41;;;;;;;5.40;2.80;;;;;;;6.21;100.00;97013.69;5013754;28;20616;-61
2022/01/05 06:38:07;;;;;;;5.63;2.85;;;;;;;6.14;100.00;97007.53;5006128;28;20104;-60
2022/01/05 06:40:32;;;;;;;4.63;2.25;;;;;;;6.25;100.00;97030.50;5008173;28;20034;-62
2022/01/05 06:42:59;;;;;;;4.18;2.00;;;;;;;6.24;100.00;97028.06;5024088;28;20034;-60
2022/01/05 06:45:24;;;;;;;3.60;1.40;;;;;;;6.00;100.00;96970.22;5011728;28;20461;-61
2022/01/05 06:47:50;;;;;;;4.22;1.50;;;;;;;6.37;100.00;97019.88;5005885;28;20041;-61
2022/01/05 06:50:15;;;;;;;3.40;1.65;;;;;;;6.40;100.00;97020.38;5014018;28;20139;-60
2022/01/05 06:52:41;;;;;;;4.20;2.30;;;;;;;6.19;100.00;96994.16;5016462;28;20037;-61
2022/01/05 06:55:09;;;;;;;6.07;2.83;;;;;;;6.20;100.00;97011.28;5014535;28;20069;-60
2022/01/05 06:57:34;;;;;;;4.78;3.20;;;;;;;5.82;100.00;96969.47;5018172;28;20068;-60
2022/01/05 06:59:59;;;;;;;5.68;3.63;;;;;;;5.88;100.00;96976.63;5039537;28;20141;-60
2022/01/05 07:02:25;;;;;;;5.00;3.47;;;;;;;6.06;100.00;97003.16;5015427;28;20060;-61
2022/01/05 07:04:50;;;;;;;5.30;3.40;;;;;;;6.04;100.00;97006.84;5013504;28;20053;-61
2022/01/05 07:07:17;;;;;;;6.55;3.30;;;;;;;6.06;100.00;97016.06;5020087;28;20029;-60
2022/01/05 07:09:43;;;;;;;5.75;3.45;;;;;;;6.12;100.00;97017.22;5011100;28;20071;-60
2022/01/05 07:12:09;;;;;;;4.70;2.83;;;;;;;6.14;100.00;97010.13;5011685;28;20038;-60
2022/01/05 07:14:34;;;;;;;4.68;2.90;;;;;;;6.11;100.00;96994.94;5014165;28;20018;-60
2022/01/05 07:17:00;;;;;;;4.18;2.53;;;;;;;5.98;100.00;96959.25;5018443;28;20033;-60
2022/01/05 07:19:25;;;;;;;5.22;2.90;;;;;;;5.95;100.00;96950.06;5049493;28;20041;-60
2022/01/05 07:21:50;;;;;;;4.80;2.80;;;;;;;6.28;100.00;97000.97;5013826;28;20030;-60
2022/01/05 07:24:19;;;;;;;5.03;2.80;;;;;;;6.07;100.00;96948.00;5003675;28;20030;-60
2022/01/05 07:26:46;;;;;;;4.60;2.50;;;;;;;6.26;100.00;96975.34;4974342;28;20029;-60
2022/01/05 07:29:16;;;;;;;5.32;2.47;;;;;;;6.31;100.00;96983.38;5006721;28;20584;-61
2022/01/05 07:31:42;;;;;;;5.30;2.60;;;;;;;6.25;100.00;96988.38;5012350;28;20017;-61
2022/01/05 07:34:08;;;;;;;5.18;2.65;;;;;;;6.22;100.00;96997.22;5022616;28;20071;-59
2022/01/05 07:36:33;;;;;;;5.38;2.50;;;;;;;6.19;100.00;96989.00;5014804;28;20030;-60
2022/01/05 07:38:59;;;;;;;4.80;2.50;;;;;;;6.20;100.00;96994.00;5020408;28;20038;-60
2022/01/05 07:41:26;;;;;;;5.53;2.20;;;;;;;6.31;100.00;97009.19;5023487;28;20033;-60
2022/01/05 07:43:51;;;;;;;5.05;2.35;;;;;;;6.07;100.00;96973.00;4989006;28;20484;-59
2022/01/05 07:46:18;;;;;;;4.40;2.00;;;;;;;6.37;100.00;97010.38;5019184;28;20036;-61
2022/01/05 07:48:43;;;;;;;4.95;2.30;;;;;;;6.41;100.00;97019.41;5005882;28;20510;-60
2022/01/05 07:51:09;;;;;;;3.80;1.83;;;;;;;6.48;100.00;97024.72;5023427;28;20030;-61
2022/01/05 07:53:34;;;;;;;3.53;1.75;;;;;;;6.15;100.00;96975.59;5015127;28;20124;-59
2022/01/05 07:55:59;;;;;;;3.53;1.65;;;;;;;5.49;100.00;96867.00;5013478;28;20045;-59
2022/01/05 07:58:27;;;;;;;4.25;1.40;;;;;;;6.51;100.00;97024.44;4997363;28;20467;-61
2022/01/05 08:00:52;;;;;;;2.70;1.20;;;;;;;6.61;100.00;97013.94;5032685;28;20030;-59
2022/01/05 08:03:18;;;;;;;3.72;1.20;;;;;;;6.64;100.00;97008.47;5016111;28;20064;-60
2022/01/05 08:05:43;;;;;;;2.80;1.17;;;;;;;6.61;100.00;96996.69;5028307;28;20416;-60
2022/01/05 08:08:08;;;;;;;2.92;1.15;;;;;;;6.76;100.00;97007.22;5018109;28;20029;-60
2022/01/05 08:10:34;;;;;;;3.35;1.30;;;;;;;6.81;100.00;97001.53;5019006;28;20515;-60
2022/01/05 08:12:59;;;;;;;2.42;1.10;;;;;;;6.55;100.00;96961.16;5048577;28;20124;-60
2022/01/05 08:15:25;;;;;;;3.50;1.63;;;;;;;6.40;100.00;96952.44;5001798;28;20505;-59
2022/01/05 08:17:50;;;;;;;4.03;1.75;;;;;;;6.33;100.00;96953.09;5043749;28;20022;-61
2022/01/05 08:20:16;;;;;;;3.78;1.60;;;;;;;6.57;100.00;97002.34;5017069;28;20634;-59
2022/01/05 08:22:43;;;;;;;6.20;1.75;;;;;;;6.54;100.00;96991.34;5009438;28;20025;-60
2022/01/05 08:25:10;;;;;;;4.50;1.70;;;;;;;6.16;100.00;96928.19;5009220;28;20076;-59
2022/01/05 08:27:36;;;;;;;5.28;1.70;;;;;;;6.64;100.00;96993.78;5022079;28;20168;-59
2022/01/05 08:30:04;;;;;;;3.22;1.48;;;;;;;6.51;100.00;96971.00;5009466;28;20034;-59
2022/01/05 08:32:31;;;;;;;3.67;1.60;;;;;;;6.67;100.00;96985.72;5015524;28;20087;-59
2022/01/05 08:34:56;;;;;;;4.63;1.60;;;;;;;6.36;100.00;96944.19;4998215;28;20037;-60
2022/01/05 08:37:22;;;;;;;5.57;1.50;;;;;;;6.67;100.00;96987.50;5009338;28;20514;-59
2022/01/05 08:39:50;;;;;;;3.08;1.33;;;;;;;6.76;100.00;96981.38;5012811;28;20025;-59
2022/01/05 08:42:15;;;;;;;2.65;1.05;;;;;;;6.53;99.60;96917.44;5013960;28;20120;-59
2022/01/05 08:44:41;;;;;;;3.30;1.30;;;;;;;6.99;97.74;96966.06;5017147;28;20432;-60
2022/01/05 08:47:07;;;;;;;2.42;0.90;;;;;;;6.81;94.78;96921.47;5015330;28;20519;-58
2022/01/05 08:49:33;;;;;;;3.20;1.20;;;;;;;7.07;93.88;96950.53;5021085;28;20136;-59
2022/01/05 08:51:59;;;;;;;2.97;1.20;;;;;;;7.15;93.92;96970.38;4984586;28;20283;-60
2022/01/05 08:54:25;;;;;;;2.30;0.90;;;;;;;6.83;91.59;96912.59;5013257;28;20018;-59
2022/01/05 08:56:50;;;;;;;2.75;1.00;;;;;;;7.15;92.87;96960.03;5013208;28;20065;-60
2022/01/05 08:59:16;;;;;;;3.00;1.08;;;;;;;7.13;92.39;96951.66;5018806;28;20048;-59
2022/01/05 09:01:43;;;;;;;2.40;1.00;;;;;;;7.06;93.03;96954.09;5047999;28;20041;-62
2022/01/05 09:04:09;;;;;;;2.33;0.85;;;;;;;7.05;91.89;96942.13;5020922;28;20033;-59
2022/01/05 09:06:34;;;;;;;2.85;1.02;;;;;;;7.10;91.13;96944.22;5012899;28;20262;-58
2022/01/05 09:08:59;;;;;;;2.72;1.00;;;;;;;7.04;92.56;96950.03;5017470;28;20041;-59
2022/01/05 09:11:27;;;;;;;3.50;1.10;;;;;;;6.98;94.61;96942.94;5005407;28;20039;-59
2022/01/05 09:13:52;;;;;;;3.78;1.20;;;;;;;6.88;95.94;96937.94;5013601;28;20054;-60
2022/01/05 09:16:19;;;;;;;5.78;1.30;;;;;;;6.65;96.66;96910.19;5023436;28;20091;-59
2022/01/05 09:18:44;;;;;;;5.85;2.60;;;;;;;6.89;97.72;96949.91;5011065;28;20653;-60
2022/01/05 09:21:10;;;;;;;7.55;5.57;;;;;;;6.82;100.00;96954.88;5014466;28;20064;-59
2022/01/05 09:23:35;;;;;;;8.27;6.43;;;;;;;6.46;100.00;96920.81;5006423;28;20034;-59
2022/01/05 09:26:01;;;;;;;9.73;7.38;;;;;;;6.67;100.00;96965.06;4953466;28;20050;-60
2022/01/05 09:28:27;;;;;;;9.07;7.30;;;;;;;6.61;100.00;96968.28;5016917;28;20033;-59
2022/01/05 09:30:53;;;;;;;9.85;7.82;;;;;;;6.62;100.00;96961.34;5022125;28;20399;-59
2022/01/05 09:33:19;;;;;;;9.20;7.38;;;;;;;6.70;100.00;96977.66;5019076;28;20028;-60
2022/01/05 09:35:46;;;;;;;9.65;6.85;;;;;;;6.70;100.00;96980.25;5021139;28;20021;-60
2022/01/05 09:38:34;;;;;;;8.52;7.45;;;;;;;6.36;100.00;96926.13;5020813;28;20531;-59
2022/01/05 09:43:55;;;;;;;8.48;7.03;;;;;;;6.63;100.00;96979.28;5014067;28;20065;-60
2022/01/05 09:46:58;;;;;;;8.02;6.85;;;;;;;6.78;100.00;96994.13;5002492;28;20037;-60
2022/01/05 09:49:42;;;;;;;9.25;6.28;;;;;;;6.78;100.00;96984.59;5014443;28;20093;-60
2022/01/05 09:52:10;;;;;;;8.57;6.22;;;;;;;6.82;100.00;96985.09;5013171;28;20207;-59
2022/01/05 09:54:38;;;;;;;7.45;5.95;;;;;;;6.83;100.00;96984.13;5014863;28;20367;-60
2022/01/05 09:57:05;;;;;;;7.53;5.90;;;;;;;6.81;100.00;96978.28;4961242;28;20029;-59
2022/01/05 09:59:33;;;;;;;7.10;5.88;;;;;;;6.83;100.00;96981.56;5016509;28;20441;-59
2022/01/05 10:01:58;;;;;;;8.00;5.85;;;;;;;6.55;100.00;96937.94;5010314;28;20815;-59
2022/01/05 10:04:24;;;;;;;8.35;6.03;;;;;;;6.85;100.00;96977.84;5013244;28;20034;-59
2022/01/05 10:06:49;;;;;;;8.23;6.32;;;;;;;6.90;100.00;96972.19;5010320;28;20022;-59
2022/01/05 10:09:15;;;;;;;7.43;5.82;;;;;;;6.96;100.00;96966.38;5015014;28;20846;-60
2022/01/05 10:11:40;;;;;;;8.32;6.43;;;;;;;6.93;100.00;96975.22;5016250;28;20728;-60
2022/01/05 10:14:08;;;;;;;8.98;6.53;;;;;;;6.92;100.00;96970.25;4931662;28;20060;-59
2022/01/05 10:16:34;;;;;;;8.43;6.60;;;;;;;6.84;100.00;96972.81;5014429;28;20029;-58
2022/01/05 10:18:59;;;;;;;9.32;7.25;;;;;;;6.91;100.00;96973.78;5010370;28;20072;-60
2022/01/05 10:21:32;;;;;;;8.57;7.15;;;;;;;6.98;100.00;96992.06;5001454;28;20049;-62
2022/01/05 10:23:58;;;;;;;8.18;6.95;;;;;;;6.71;100.00;96948.25;5008615;28;20029;-60
2022/01/05 10:26:34;;;;;;;8.90;7.07;;;;;;;6.71;100.00;96944.88;5006323;28;20037;-61
2022/01/05 10:29:07;;;;;;;8.23;7.28;;;;;;;6.87;100.00;96981.06;4953655;28;20025;-61
2022/01/05 10:31:36;;;;;;;8.23;6.80;;;;;;;6.65;100.00;96945.53;5014312;28;20025;-61
2022/01/05 10:34:23;;;;;;;8.30;6.63;;;;;;;6.82;100.00;96996.22;5012131;28;20080;-61
2022/01/05 10:36:56;;;;;;;8.23;6.50;;;;;;;6.76;100.00;96975.41;5013548;28;20093;-61
2022/01/05 10:39:31;;;;;;;8.23;6.35;;;;;;;6.53;100.00;96945.84;5013967;28;20036;-62
2022/01/05 10:42:04;;;;;;;8.25;6.85;;;;;;;6.83;100.00;96976.38;5044289;28;20040;-61
2022/01/05 10:44:29;;;;;;;8.15;6.65;;;;;;;6.60;100.00;96947.78;4951919;28;20038;-61
2022/01/05 10:46:57;;;;;;;7.75;6.40;;;;;;;6.91;100.00;96981.53;5011596;28;20026;-62
2022/01/05 10:49:33;;;;;;;9.55;7.50;;;;;;;6.93;100.00;96967.47;5006140;28;20787;-61
2022/01/05 10:52:20;;;;;;;7.93;6.78;;;;;;;6.92;100.00;96965.09;5031318;28;20041;-60
2022/01/05 10:54:46;;;;;;;7.68;6.47;;;;;;;6.88;100.00;96956.84;5009640;28;20056;-62
2022/01/05 10:57:13;;;;;;;8.05;6.70;;;;;;;6.73;100.00;96928.28;4999993;28;21725;-62
2022/01/05 10:59:47;;;;;;;8.32;7.30;;;;;;;6.73;100.00;96917.13;5003480;28;20571;-62
2022/01/05 11:02:39;;;;;;;7.93;6.95;;;;;;;7.01;100.00;96951.19;5021837;28;20021;-61
2022/01/05 11:05:08;;;;;;;8.48;6.50;;;;;;;7.08;100.00;96959.06;5012506;28;20048;-62
2022/01/05 11:07:37;;;;;;;8.60;6.00;;;;;;;7.00;99.95;96948.75;5016527;28;20034;-61
2022/01/05 11:10:07;;;;;;;8.32;6.50;;;;;;;7.01;99.89;96947.78;5029610;28;20290;-61
2022/01/05 11:12:36;;;;;;;8.75;6.53;;;;;;;7.01;100.00;96945.19;5015097;28;20029;-61
2022/01/05 11:15:23;;;;;;;9.38;6.53;;;;;;;7.04;100.00;96942.28;5004493;28;20342;-61
2022/01/05 11:18:18;;;;;;;9.13;7.25;;;;;;;7.07;100.00;96940.19;5012659;28;20083;-61
2022/01/05 11:20:55;;;;;;;13.20;9.10;;;;;;;7.10;100.00;96942.47;5033681;28;20627;-61
2022/01/05 11:23:22;;;;;;;8.63;7.43;;;;;;;7.02;100.00;96933.91;5023732;28;20117;-61
2022/01/05 11:25:49;;;;;;;8.90;6.43;;;;;;;7.04;100.00;96937.91;5014830;28;20086;-61
2022/01/05 11:28:16;;;;;;;8.75;6.47;;;;;;;7.05;100.00;96943.91;5021162;28;20030;-61
2022/01/05 11:30:42;;;;;;;7.90;5.65;;;;;;;7.06;100.00;96927.44;5004308;28;20765;-61
2022/01/05 11:33:08;;;;;;;8.23;6.03;;;;;;;7.03;100.00;96923.41;4982745;28;20033;-62